Time;durP1;ratioP1;P1;durP2;ratioP2;P2;SDS_P1;SDS_P2;PMS_P1;PMS_P2;Temp;Humidity;BMP_temperature;BMP_pressure;BME280_temperature;BME280_humidity;BME280_pressure;Samples;Min_cycle;Max_cycle;Signal;HPM_P1;HPM_P2
2023/11/28 00:00:33;;;;;;;;;;;5.60;69.20;;;;;;5034864;28;20421;-73
2023/11/28 00:02:59;;;;;;;7.10;3.92;;;5.70;69.20;;;;;;5050211;28;19971;-74
2023/11/28 00:05:25;;;;;;;6.72;4.88;;;5.70;69.50;;;;;;5034871;28;20376;-73
2023/11/28 00:07:51;;;;;;;7.38;5.95;;;5.70;69.50;;;;;;5033936;28;20406;-72
2023/11/28 00:10:17;;;;;;;6.20;2.22;;;5.70;69.60;;;;;;5016260;28;20479;-71
2023/11/28 00:12:44;;;;;;;7.18;5.22;;;5.80;69.90;;;;;;5034903;28;20041;-71
2023/11/28 00:15:10;;;;;;;11.13;5.13;;;5.70;69.80;;;;;;5034607;28;20079;-71
2023/11/28 00:17:36;;;;;;;;;;;5.70;70.00;;;;;;5035636;28;20036;-72
2023/11/28 00:20:02;;;;;;;9.20;3.72;;;5.70;70.00;;;;;;5066611;28;19917;-73
2023/11/28 00:22:28;;;;;;;9.20;5.60;;;5.70;70.30;;;;;;5034303;28;20050;-74
2023/11/28 00:24:54;;;;;;;8.98;6.93;;;5.70;70.60;;;;;;5033467;28;20037;-73
2023/11/28 00:27:20;;;;;;;6.05;3.42;;;5.80;70.40;;;;;;5033506;28;20037;-74
2023/11/28 00:29:46;;;;;;;14.82;7.40;;;5.80;70.50;;;;;;5034392;28;20070;-73
2023/11/28 00:32:12;;;;;;;6.40;3.83;;;5.80;70.50;;;;;;5034275;28;20037;-74
2023/11/28 00:34:38;;;;;;;4.50;2.58;;;5.80;70.40;;;;;;5034452;28;20490;-71
2023/11/28 00:37:04;;;;;;;6.90;4.80;;;5.80;70.20;;;;;;5034658;28;20042;-74
2023/11/28 00:39:30;;;;;;;3.70;3.28;;;5.80;70.30;;;;;;5034255;28;20041;-71
2023/11/28 00:41:56;;;;;;;6.18;3.40;;;5.90;70.40;;;;;;5033814;28;20083;-73
2023/11/28 00:44:22;;;;;;;9.00;4.97;;;5.90;70.40;;;;;;5034203;28;20043;-74
2023/11/28 00:46:49;;;;;;;3.08;2.03;;;5.90;70.70;;;;;;5034233;28;20037;-74
2023/11/28 00:49:15;;;;;;;7.75;4.07;;;5.90;70.30;;;;;;5032787;28;20394;-74
2023/11/28 00:51:43;;;;;;;9.35;3.25;;;6.00;70.80;;;;;;5031996;28;20064;-74
2023/11/28 00:54:10;;;;;;;5.93;3.30;;;5.90;70.60;;;;;;5032632;28;20033;-72
2023/11/28 00:56:37;;;;;;;6.10;4.72;;;5.90;70.10;;;;;;5016068;28;20044;-73
2023/11/28 00:59:02;;;;;;;;;;;5.90;70.20;;;;;;5034428;28;20038;-73
2023/11/28 01:01:28;;;;;;;13.82;4.18;;;5.90;70.90;;;;;;5065195;28;19921;-73
2023/11/28 01:03:54;;;;;;;5.15;3.35;;;5.90;70.80;;;;;;5033563;28;20037;-74
2023/11/28 01:06:20;;;;;;;6.97;5.78;;;5.90;70.90;;;;;;5033986;28;20053;-74
2023/11/28 01:08:47;;;;;;;7.85;4.25;;;5.80;70.90;;;;;;5015999;28;20025;-71
2023/11/28 01:11:15;;;;;;;4.40;2.38;;;5.70;71.10;;;;;;5031825;28;20076;-71
2023/11/28 01:13:41;;;;;;;6.57;3.63;;;5.60;71.20;;;;;;5032349;28;20053;-72
2023/11/28 01:16:10;;;;;;;7.15;4.85;;;5.50;71.70;;;;;;5033641;28;20111;-71
2023/11/28 01:18:36;;;;;;;4.50;2.60;;;5.40;71.90;;;;;;5032062;28;20033;-71
2023/11/28 01:21:03;;;;;;;;;;;5.30;72.10;;;;;;5033015;28;20494;-71
2023/11/28 01:23:29;;;;;;;12.07;4.70;;;5.30;72.20;;;;;;5048595;28;20289;-71
2023/11/28 01:25:55;;;;;;;6.15;3.55;;;5.20;72.20;;;;;;5032163;28;20052;-71
2023/11/28 01:28:21;;;;;;;4.68;3.38;;;5.20;72.30;;;;;;5032197;28;20041;-71
2023/11/28 01:30:47;;;;;;;4.13;3.05;;;5.20;72.10;;;;;;5031107;28;20083;-71
2023/11/28 01:33:13;;;;;;;6.00;3.38;;;5.20;72.00;;;;;;5033209;28;20080;-71
2023/11/28 01:35:39;;;;;;;7.15;2.75;;;5.20;72.10;;;;;;5015603;28;20315;-73
2023/11/28 01:38:05;;;;;;;7.43;3.85;;;5.20;72.30;;;;;;5033114;28;20033;-74
2023/11/28 01:40:32;;;;;;;6.35;4.15;;;5.20;72.30;;;;;;5032542;28;20037;-71
2023/11/28 01:42:58;;;;;;;5.47;3.80;;;5.10;72.60;;;;;;5031607;28;20033;-72
2023/11/28 01:45:24;;;;;;;7.95;3.63;;;5.10;72.70;;;;;;5015179;28;20072;-73
2023/11/28 01:48:09;;;;;;;;;;;5.00;72.70;;;;;;5032469;28;20386;-71
2023/11/28 01:50:35;;;;;;;2.75;1.95;;;5.00;72.30;;;;;;5064317;28;19916;-71
2023/11/28 01:53:01;;;;;;;4.80;3.35;;;5.00;72.40;;;;;;5031636;28;20269;-70
2023/11/28 01:55:27;;;;;;;3.30;2.67;;;5.00;72.50;;;;;;5014902;28;20033;-71
2023/11/28 01:57:53;;;;;;;3.75;2.28;;;5.00;72.60;;;;;;5033344;28;20040;-71
2023/11/28 02:00:19;;;;;;;6.55;3.47;;;5.00;72.80;;;;;;5032289;28;20044;-72
2023/11/28 02:02:45;;;;;;;5.93;4.25;;;5.00;73.60;;;;;;5031558;28;20049;-71
2023/11/28 02:05:12;;;;;;;4.82;2.97;;;5.00;73.60;;;;;;5032508;28;20096;-74
2023/11/28 02:07:40;;;;;;;5.75;2.45;;;4.90;72.40;;;;;;5032677;28;20510;-70
2023/11/28 02:10:07;;;;;;;12.38;5.00;;;4.90;72.90;;;;;;5030473;28;20021;-74
2023/11/28 02:12:33;;;;;;;8.88;3.67;;;4.90;73.00;;;;;;5031293;28;20034;-71
2023/11/28 02:14:59;;;;;;;5.40;2.50;;;4.90;73.00;;;;;;5031438;28;20386;-73
2023/11/28 02:17:25;;;;;;;5.75;3.47;;;4.90;73.00;;;;;;5032841;28;20041;-71
2023/11/28 02:19:57;;;;;;;5.15;2.63;;;4.90;73.00;;;;;;5031245;28;20041;-71
2023/11/28 02:22:24;;;;;;;9.25;4.13;;;4.90;73.00;;;;;;5014470;28;20080;-74
2023/11/28 02:24:51;;;;;;;4.03;1.92;;;4.90;73.10;;;;;;5031321;28;20288;-71
2023/11/28 02:27:17;;;;;;;3.38;2.25;;;4.80;72.40;;;;;;5032810;28;20038;-71
2023/11/28 02:30:02;;;;;;;5.93;4.18;;;4.90;73.00;;;;;;5031210;28;20402;-74
2023/11/28 02:32:28;;;;;;;3.47;3.03;;;4.90;72.90;;;;;;5052112;28;20390;-74
2023/11/28 02:34:54;;;;;;;4.22;3.45;;;5.00;72.90;;;;;;5052103;28;20038;-71
2023/11/28 02:37:20;;;;;;;2.83;2.17;;;5.00;72.80;;;;;;5084919;28;20053;-73
2023/11/28 02:39:46;;;;;;;6.45;3.13;;;5.00;73.00;;;;;;5052284;28;20074;-73
2023/11/28 02:42:12;;;;;;;7.68;3.70;;;5.00;73.20;;;;;;5051841;28;20045;-74
2023/11/28 02:44:38;;;;;;;6.28;2.85;;;4.90;73.30;;;;;;5052010;28;20025;-74
2023/11/28 02:47:04;;;;;;;8.48;3.42;;;4.90;73.40;;;;;;5051129;28;20049;-71
2023/11/28 02:49:30;;;;;;;4.13;2.95;;;4.80;73.40;;;;;;5050805;28;20503;-73
2023/11/28 02:51:56;;;;;;;6.57;3.03;;;4.80;73.60;;;;;;5050286;28;20045;-71
2023/11/28 02:54:22;;;;;;;4.85;4.40;;;4.80;73.60;;;;;;5050711;28;20028;-73
2023/11/28 02:56:48;;;;;;;7.57;3.80;;;4.80;73.70;;;;;;5052144;28;20083;-73
2023/11/28 02:59:15;;;;;;;4.97;3.05;;;4.80;73.90;;;;;;5052022;28;20425;-74
2023/11/28 03:01:41;;;;;;;;;;;4.80;73.80;;;;;;5050534;28;20284;-74
2023/11/28 03:04:07;;;;;;;4.05;2.47;;;4.80;73.60;;;;;;5084179;28;19912;-74
2023/11/28 03:06:33;;;;;;;14.85;5.57;;;4.80;73.30;;;;;;5050860;28;20047;-71
2023/11/28 03:08:59;;;;;;;4.10;2.58;;;4.80;73.40;;;;;;5051927;28;20029;-74
2023/11/28 03:11:25;;;;;;;8.48;2.50;;;4.80;73.50;;;;;;5049990;28;20045;-71
2023/11/28 03:13:51;;;;;;;3.78;3.17;;;4.80;73.40;;;;;;5051719;28;20500;-74
2023/11/28 03:16:17;;;;;;;3.33;1.88;;;4.80;73.40;;;;;;5050840;28;20512;-73
2023/11/28 03:18:42;;;;;;;7.50;3.50;;;4.80;73.50;;;;;;5050527;28;20398;-71
2023/11/28 03:21:09;;;;;;;1.05;0.70;;;4.80;74.60;;;;;;5051787;28;20053;-70
2023/11/28 03:23:35;;;;;;;3.60;2.25;;;4.80;73.70;;;;;;5055343;28;20439;-74
2023/11/28 03:26:01;;;;;;;3.28;1.73;;;4.90;73.60;;;;;;5054310;28;20033;-71
2023/11/28 03:28:27;;;;;;;10.82;5.20;;;4.90;73.50;;;;;;5055509;28;20029;-71
2023/11/28 03:30:53;;;;;;;3.40;2.58;;;4.90;73.40;;;;;;5053632;28;20037;-71
2023/11/28 03:33:19;;;;;;;2.20;1.27;;;4.90;74.30;;;;;;5087825;28;20026;-71
2023/11/28 03:35:45;;;;;;;3.25;1.90;;;5.00;73.30;;;;;;5070750;28;20523;-73
2023/11/28 03:38:11;;;;;;;6.05;4.07;;;4.90;73.40;;;;;;5054199;28;20049;-71
2023/11/28 03:40:37;;;;;;;5.28;2.83;;;4.90;73.50;;;;;;5053214;28;20029;-74
2023/11/28 03:43:03;;;;;;;5.88;1.83;;;5.00;73.40;;;;;;5053927;28;20037;-71
2023/11/28 03:45:29;;;;;;;4.70;2.75;;;5.00;73.20;;;;;;5055037;28;20041;-72
2023/11/28 03:47:55;;;;;;;9.25;3.05;;;5.10;73.20;;;;;;5055545;28;20501;-74
2023/11/28 03:50:21;;;;;;;6.18;5.50;;;5.10;73.20;;;;;;5053215;28;20065;-74
2023/11/28 03:52:47;;;;;;;4.20;2.92;;;5.10;73.50;;;;;;5053861;28;20531;-71
2023/11/28 03:55:13;;;;;;;4.03;2.33;;;5.10;73.70;;;;;;5053828;28;20033;-74
2023/11/28 03:57:39;;;;;;;4.85;3.22;;;5.10;73.70;;;;;;5055587;28;20036;-74
2023/11/28 04:00:09;;;;;;;1.75;0.93;;;5.10;73.60;;;;;;5054301;28;20037;-74
2023/11/28 04:02:35;;;;;;;4.63;2.15;;;5.10;73.30;;;;;;5055146;28;20063;-73
2023/11/28 04:07:47;;;;;;;4.65;4.20;;;5.20;73.10;;;;;;5054026;28;20094;-73
2023/11/28 04:10:13;;;;;;;4.07;2.35;;;5.20;73.10;;;;;;5053014;28;20253;-72
2023/11/28 04:12:39;;;;;;;7.38;2.92;;;5.20;73.10;;;;;;5053502;28;20033;-74
2023/11/28 04:15:06;;;;;;;5.30;3.92;;;5.20;73.20;;;;;;5054617;28;20045;-71
2023/11/28 04:17:32;;;;;;;5.40;2.50;;;5.20;72.70;;;;;;5087022;28;20037;-72
2023/11/28 04:19:58;;;;;;;3.83;2.40;;;5.20;73.50;;;;;;5086893;28;20037;-70
2023/11/28 04:22:25;;;;;;;6.95;5.40;;;5.30;73.60;;;;;;5053990;28;20064;-71
2023/11/28 04:24:51;;;;;;;5.80;4.07;;;5.30;73.50;;;;;;5054389;28;20495;-71
2023/11/28 04:27:17;;;;;;;5.10;3.17;;;5.30;73.60;;;;;;5053535;28;20038;-74
2023/11/28 04:29:43;;;;;;;3.72;3.22;;;5.20;73.50;;;;;;5053061;28;20091;-71
2023/11/28 04:32:09;;;;;;;3.17;2.90;;;5.30;73.50;;;;;;5052413;28;20044;-71
2023/11/28 04:34:36;;;;;;;10.75;3.45;;;5.30;73.50;;;;;;5053038;28;20029;-74
2023/11/28 04:37:03;;;;;;;2.70;1.67;;;5.30;73.50;;;;;;5054722;28;20497;-73
2023/11/28 04:39:29;;;;;;;10.20;3.70;;;5.30;74.30;;;;;;5053111;28;20021;-71
2023/11/28 04:41:55;;;;;;;13.40;3.97;;;5.40;73.50;;;;;;5052145;28;20044;-71
2023/11/28 04:44:21;;;;;;;3.17;1.75;;;5.40;73.20;;;;;;5053937;28;20148;-71
2023/11/28 04:46:47;;;;;;;4.40;3.08;;;5.40;73.10;;;;;;5053015;28;20033;-71
2023/11/28 04:49:14;;;;;;;3.47;1.67;;;5.40;73.00;;;;;;5054697;28;20078;-72
2023/11/28 04:51:40;;;;;;;2.63;1.85;;;5.40;72.90;;;;;;5051871;28;20033;-74
2023/11/28 04:54:06;;;;;;;7.90;1.67;;;5.50;73.00;;;;;;5053864;28;20036;-71
2023/11/28 04:56:32;;;;;;;2.13;1.48;;;5.50;73.30;;;;;;5054128;28;20394;-74
2023/11/28 04:58:58;;;;;;;1.85;1.75;;;5.50;73.30;;;;;;5054033;28;20029;-70
2023/11/28 05:01:24;;;;;;;5.82;1.55;;;5.50;73.40;;;;;;5051799;28;20044;-73
2023/11/28 05:03:51;;;;;;;0.77;0.68;;;5.60;73.50;;;;;;5053600;28;20033;-71
2023/11/28 05:06:17;;;;;;;5.35;2.90;;;5.60;73.20;;;;;;5053802;28;20037;-73
2023/11/28 05:08:43;;;;;;;1.85;1.45;;;5.60;73.20;;;;;;5053681;28;20405;-70
2023/11/28 05:11:10;;;;;;;2.50;1.73;;;5.60;73.20;;;;;;5053145;28;20066;-71
2023/11/28 05:13:37;;;;;;;2.33;1.65;;;5.60;72.50;;;;;;5035339;28;20036;-73
2023/11/28 05:16:03;;;;;;;3.17;2.75;;;5.70;73.10;;;;;;5053681;28;20041;-71
2023/11/28 05:18:29;;;;;;;1.73;1.30;;;5.60;73.10;;;;;;5053317;28;20029;-71
2023/11/28 05:20:55;;;;;;;3.95;1.98;;;5.70;73.50;;;;;;5042871;28;20107;-71
2023/11/28 05:23:22;;;;;;;3.78;2.22;;;5.70;73.50;;;;;;5041027;28;20040;-73
2023/11/28 05:25:48;;;;;;;4.30;1.15;;;5.70;73.50;;;;;;5046795;28;20555;-71
2023/11/28 05:28:14;;;;;;;2.58;2.20;;;5.70;73.50;;;;;;5065461;28;20552;-73
2023/11/28 05:30:40;;;;;;;1.45;1.13;;;5.80;73.80;;;;;;5048037;28;20030;-70
2023/11/28 05:33:06;;;;;;;2.17;1.48;;;5.70;73.90;;;;;;5015585;28;20030;-73
2023/11/28 05:35:33;;;;;;;1.15;0.90;;;5.80;74.80;;;;;;5048471;28;20441;-71
2023/11/28 05:37:59;;;;;;;2.70;2.40;;;5.80;73.80;;;;;;5069685;28;20044;-73
2023/11/28 05:40:25;;;;;;;2.47;0.95;;;5.80;73.80;;;;;;5052238;28;20505;-73
2023/11/28 05:42:51;;;;;;;6.68;6.05;;;5.80;74.10;;;;;;5052672;28;20425;-73
2023/11/28 05:45:16;;;;;;;3.13;1.83;;;5.70;74.40;;;;;;5052834;28;20041;-71
2023/11/28 05:47:43;;;;;;;3.63;2.08;;;5.70;74.50;;;;;;5051893;28;20036;-73
2023/11/28 05:50:09;;;;;;;7.35;2.95;;;5.80;75.10;;;;;;5052466;28;20036;-71
2023/11/28 05:52:35;;;;;;;;;;;5.70;75.00;;;;;;5052163;28;20029;-70
2023/11/28 05:55:01;;;;;;;8.13;3.10;;;5.80;75.10;;;;;;5051546;28;19912;-74
2023/11/28 05:57:28;;;;;;;4.13;2.95;;;5.80;75.10;;;;;;5051632;28;20041;-71
2023/11/28 05:59:54;;;;;;;2.15;1.48;;;5.80;75.20;;;;;;5035090;28;20375;-70
2023/11/28 06:02:20;;;;;;;4.45;2.95;;;5.80;75.20;;;;;;5052102;28;20037;-73
2023/11/28 06:04:46;;;;;;;1.08;1.00;;;5.90;75.30;;;;;;5052596;28;20037;-74
2023/11/28 06:07:12;;;;;;;2.00;1.20;;;5.90;75.70;;;;;;5051509;28;20044;-74
2023/11/28 06:09:38;;;;;;;3.67;2.28;;;5.90;76.50;;;;;;5051403;28;20082;-74
2023/11/28 06:12:05;;;;;;;8.38;4.35;;;5.90;76.70;;;;;;5050868;28;20037;-73
2023/11/28 06:14:33;;;;;;;3.70;2.22;;;5.90;77.00;;;;;;5051282;28;20049;-73
2023/11/28 06:17:02;;;;;;;2.65;1.50;;;5.90;76.70;;;;;;5052866;28;20076;-73
2023/11/28 06:19:28;;;;;;;2.10;1.15;;;6.00;77.20;;;;;;5051142;28;20055;-71
2023/11/28 06:21:55;;;;;;;2.70;1.77;;;6.00;77.00;;;;;;5050524;28;20041;-74
2023/11/28 06:24:21;;;;;;;4.18;2.47;;;6.00;77.00;;;;;;5051093;28;20398;-70
2023/11/28 06:26:47;;;;;;;3.55;1.27;;;6.00;76.70;;;;;;5052474;28;20112;-73
2023/11/28 06:29:13;;;;;;;4.63;2.15;;;6.10;76.70;;;;;;5051116;28;20409;-71
2023/11/28 06:31:39;;;;;;;3.30;2.22;;;6.10;76.60;;;;;;5050439;28;20029;-73
2023/11/28 06:34:05;;;;;;;3.17;2.35;;;6.10;76.80;;;;;;5052265;28;20581;-71
2023/11/28 06:36:31;;;;;;;4.97;3.42;;;6.10;77.20;;;;;;5050973;28;20033;-74
2023/11/28 06:38:57;;;;;;;4.72;2.63;;;6.10;77.00;;;;;;5052403;28;20298;-71
2023/11/28 06:41:24;;;;;;;6.53;4.05;;;6.10;76.90;;;;;;5051345;28;20033;-70
2023/11/28 06:43:51;;;;;;;2.25;1.85;;;6.20;77.00;;;;;;5052057;28;20033;-73
2023/11/28 06:46:37;;;;;;;13.02;4.88;;;6.20;76.90;;;;;;5050906;28;20025;-71
2023/11/28 06:49:03;;;;;;;3.80;1.75;;;6.20;76.90;;;;;;5052413;28;20040;-71
2023/11/28 06:51:29;;;;;;;4.85;3.05;;;6.20;76.60;;;;;;5033475;28;20127;-73
2023/11/28 06:53:55;;;;;;;7.05;5.07;;;6.20;76.40;;;;;;5033960;28;20033;-74
2023/11/28 06:56:21;;;;;;;3.08;1.73;;;6.30;76.50;;;;;;5055288;28;20158;-71
2023/11/28 06:58:47;;;;;;;3.47;2.33;;;6.30;76.40;;;;;;5055865;28;20092;-74
2023/11/28 07:01:13;;;;;;;3.20;2.00;;;6.30;76.20;;;;;;5054267;28;20029;-71
2023/11/28 07:03:39;;;;;;;6.03;3.67;;;6.30;76.10;;;;;;5054628;28;20036;-70
2023/11/28 07:06:06;;;;;;;4.47;2.35;;;6.40;76.10;;;;;;5054840;28;20033;-71
2023/11/28 07:08:34;;;;;;;5.40;3.70;;;6.40;75.80;;;;;;5055795;28;20037;-73
2023/11/28 07:11:00;;;;;;;2.65;2.22;;;6.40;75.90;;;;;;5055448;28;20151;-70
2023/11/28 07:13:26;;;;;;;1.70;1.15;;;6.50;76.30;;;;;;5037801;28;20033;-74
2023/11/28 07:15:52;;;;;;;2.20;1.60;;;6.50;76.30;;;;;;5055957;28;20037;-73
2023/11/28 07:18:20;;;;;;;2.38;1.70;;;6.50;76.20;;;;;;5054535;28;20075;-71
2023/11/28 07:21:05;;;;;;;5.40;2.22;;;6.60;76.40;;;;;;5036848;28;20044;-74
2023/11/28 07:23:33;;;;;;;1.80;1.08;;;6.50;76.10;;;;;;5055591;28;20029;-71
2023/11/28 07:25:59;;;;;;;4.85;4.45;;;6.50;77.40;;;;;;5054550;28;20037;-73
2023/11/28 07:28:25;;;;;;;2.78;2.17;;;6.50;77.60;;;;;;5054272;28;20044;-71
2023/11/28 07:30:51;;;;;;;8.38;3.50;;;6.50;78.10;;;;;;5054817;28;20036;-73
2023/11/28 07:33:21;;;;;;;6.18;3.38;;;6.40;78.40;;;;;;5054342;28;20060;-72
2023/11/28 07:35:47;;;;;;;5.53;1.70;;;6.40;78.40;;;;;;5054172;28;20524;-71
2023/11/28 07:38:13;;;;;;;2.58;0.90;;;6.40;78.70;;;;;;5055558;28;20032;-70
2023/11/28 07:40:40;;;;;;;1.38;0.85;;;6.40;78.50;;;;;;5036748;28;20045;-70
2023/11/28 07:43:08;;;;;;;5.15;4.57;;;6.50;78.60;;;;;;5055001;28;20079;-74
2023/11/28 07:45:35;;;;;;;2.17;1.88;;;6.50;78.50;;;;;;5055089;28;20036;-70
2023/11/28 07:48:03;;;;;;;4.60;4.00;;;6.50;78.70;;;;;;5054091;28;20055;-74
2023/11/28 07:50:30;;;;;;;2.60;1.35;;;6.50;78.60;;;;;;5053168;28;20051;-74
2023/11/28 07:52:58;;;;;;;3.20;2.35;;;6.50;78.70;;;;;;5054926;28;20037;-70
2023/11/28 07:55:24;;;;;;;5.93;2.67;;;6.50;78.90;;;;;;5037095;28;20075;-71
2023/11/28 07:57:50;;;;;;;4.40;2.53;;;6.50;79.20;;;;;;5055471;28;20033;-74
2023/11/28 08:00:20;;;;;;;1.27;0.93;;;6.50;79.50;;;;;;5036507;28;20052;-70
2023/11/28 08:02:47;;;;;;;2.17;1.20;;;6.40;79.30;;;;;;5053910;28;20033;-74
2023/11/28 08:05:13;;;;;;;7.40;2.35;;;6.40;79.80;;;;;;5036975;28;20040;-74
2023/11/28 08:07:39;;;;;;;2.28;1.85;;;6.40;80.10;;;;;;5054600;28;20390;-73
2023/11/28 08:10:10;;;;;;;9.18;5.75;;;6.40;80.10;;;;;;5054310;28;20044;-71
2023/11/28 08:12:37;;;;;;;17.88;4.95;;;6.40;79.90;;;;;;5054698;28;20029;-74
2023/11/28 08:15:03;;;;;;;;;;;6.30;80.50;;;;;;5054149;28;20033;-71
2023/11/28 08:17:29;;;;;;;5.03;3.35;;;6.40;79.90;;;;;;5036965;28;20357;-73
2023/11/28 08:19:56;;;;;;;3.03;2.17;;;6.30;80.50;;;;;;5053625;28;20036;-74
2023/11/28 08:22:22;;;;;;;3.55;2.22;;;6.30;80.40;;;;;;5052447;28;20057;-74
2023/11/28 08:24:48;;;;;;;8.30;5.35;;;6.40;80.20;;;;;;5054417;28;20029;-74
2023/11/28 08:27:16;;;;;;;;;;;6.50;80.00;;;;;;5037404;28;20083;-74
2023/11/28 08:29:43;;;;;;;3.63;2.03;;;6.50;79.50;;;;;;5053063;28;19916;-74
2023/11/28 08:32:09;;;;;;;4.22;2.03;;;6.50;79.00;;;;;;5052715;28;20099;-71
2023/11/28 08:34:35;;;;;;;;;;;6.60;79.00;;;;;;5054759;28;20025;-73
2023/11/28 08:37:02;;;;;;;7.25;3.97;;;6.50;79.00;;;;;;5053300;28;19931;-73
2023/11/28 08:39:28;;;;;;;5.28;2.88;;;6.60;78.70;;;;;;5052982;28;20025;-71
2023/11/28 08:41:55;;;;;;;6.03;3.40;;;6.60;78.10;;;;;;5053764;28;20037;-70
2023/11/28 08:44:21;;;;;;;5.10;3.38;;;6.60;78.20;;;;;;5052671;28;20054;-74
2023/11/28 08:46:48;;;;;;;3.08;1.40;;;6.60;78.90;;;;;;5052952;28;20393;-70
2023/11/28 08:49:15;;;;;;;9.55;4.50;;;6.70;79.10;;;;;;5052700;28;20036;-71
2023/11/28 08:51:43;;;;;;;3.10;2.05;;;6.60;78.70;;;;;;5052220;28;20066;-74
2023/11/28 08:54:09;;;;;;;8.05;2.45;;;6.70;78.40;;;;;;5052683;28;20025;-74
2023/11/28 08:56:35;;;;;;;8.52;2.67;;;6.70;78.10;;;;;;5052738;28;20120;-73
2023/11/28 08:59:01;;;;;;;3.20;1.52;;;6.80;78.00;;;;;;5052785;28;20390;-71
2023/11/28 09:01:27;;;;;;;2.97;1.67;;;6.80;78.00;;;;;;5035301;28;20041;-74
2023/11/28 09:03:53;;;;;;;1.67;1.05;;;6.80;77.80;;;;;;5052422;28;20037;-74
2023/11/28 09:06:19;;;;;;;5.88;2.78;;;6.80;77.60;;;;;;5053671;28;20131;-71
2023/11/28 09:08:45;;;;;;;4.07;2.38;;;6.80;77.60;;;;;;5053716;28;20041;-70
2023/11/28 09:11:30;;;;;;;2.70;2.30;;;6.90;77.60;;;;;;5051934;28;20375;-74
2023/11/28 09:13:56;;;;;;;5.35;2.92;;;6.90;77.80;;;;;;5052065;28;20134;-70
2023/11/28 09:16:22;;;;;;;2.53;2.13;;;6.90;77.60;;;;;;5053736;28;20429;-74
2023/11/28 09:18:48;;;;;;;4.75;2.60;;;7.00;77.60;;;;;;5052052;28;20502;-71
2023/11/28 09:21:14;;;;;;;5.35;1.83;;;6.90;77.80;;;;;;5051209;28;20053;-74
2023/11/28 09:23:40;;;;;;;3.70;2.70;;;6.90;78.00;;;;;;5052232;28;20056;-74
2023/11/28 09:26:06;;;;;;;2.42;1.27;;;6.90;78.00;;;;;;5035437;28;20029;-70
2023/11/28 09:28:34;;;;;;;4.35;3.30;;;6.90;78.20;;;;;;5035289;28;20541;-73
2023/11/28 09:31:00;;;;;;;7.13;2.83;;;6.90;78.50;;;;;;5034937;28;20037;-70
2023/11/28 09:33:26;;;;;;;;;;;6.90;78.80;;;;;;5053781;28;20100;-71
2023/11/28 09:35:53;;;;;;;2.15;1.02;;;6.90;78.80;;;;;;5052176;28;20023;-71
2023/11/28 09:38:19;;;;;;;1.63;1.33;;;6.90;78.80;;;;;;5051923;28;20021;-70
2023/11/28 09:40:46;;;;;;;5.43;2.08;;;6.90;79.10;;;;;;5052600;28;20041;-72
2023/11/28 09:43:13;;;;;;;;;;;7.00;79.10;;;;;;5052046;28;20033;-74
2023/11/28 09:45:41;;;;;;;2.92;1.85;;;7.00;79.00;;;;;;5052916;28;19912;-70
2023/11/28 09:48:14;;;;;;;2.70;1.40;;;6.90;79.40;;;;;;5052956;28;20049;-70
2023/11/28 09:50:40;;;;;;;3.58;2.47;;;7.00;79.30;;;;;;5034254;28;20108;-70
2023/11/28 09:53:07;;;;;;;0.90;0.60;;;6.90;80.30;;;;;;5051637;28;20029;-74
2023/11/28 09:55:34;;;;;;;2.05;1.02;;;6.90;80.50;;;;;;5052994;28;20121;-74
2023/11/28 09:58:03;;;;;;;3.05;2.10;;;6.90;80.90;;;;;;5053332;28;20120;-70
2023/11/28 10:00:35;;;;;;;2.05;1.13;;;7.00;80.70;;;;;;5047538;28;20048;-74
2023/11/28 10:03:04;;;;;;;1.80;1.30;;;7.00;80.50;;;;;;5029713;28;20041;-71
2023/11/28 10:05:30;;;;;;;1.60;1.33;;;7.10;80.60;;;;;;5015243;28;20034;-71
2023/11/28 10:07:57;;;;;;;3.15;1.85;;;7.20;80.50;;;;;;5033154;28;20588;-74
2023/11/28 10:10:24;;;;;;;1.60;1.15;;;7.30;80.30;;;;;;5064176;28;20060;-72
2023/11/28 10:12:53;;;;;;;7.05;1.70;;;7.20;80.20;;;;;;5031437;28;20431;-71
2023/11/28 10:15:21;;;;;;;3.80;2.08;;;7.30;80.50;;;;;;5031447;28;20538;-74
2023/11/28 10:17:48;;;;;;;3.72;2.00;;;7.30;80.40;;;;;;5064478;28;20038;-74
2023/11/28 10:20:15;;;;;;;3.03;1.65;;;7.30;80.40;;;;;;5047286;28;20033;-71
2023/11/28 10:23:01;;;;;;;6.15;5.47;;;7.30;80.50;;;;;;5031176;28;20050;-70
2023/11/28 10:25:28;;;;;;;2.95;2.28;;;7.30;80.50;;;;;;5031228;28;20044;-71
2023/11/28 10:27:58;;;;;;;5.72;5.00;;;7.30;81.00;;;;;;5031282;28;20041;-73
2023/11/28 10:30:24;;;;;;;6.75;4.13;;;7.30;81.10;;;;;;5030195;28;20040;-74
2023/11/28 10:32:50;;;;;;;6.60;2.42;;;7.40;81.20;;;;;;5032765;28;20034;-74
2023/11/28 10:35:16;;;;;;;4.00;1.90;;;7.40;80.50;;;;;;5032294;28;20033;-71
2023/11/28 10:37:43;;;;;;;2.67;1.63;;;7.50;81.00;;;;;;5031223;28;20050;-74
2023/11/28 10:40:17;;;;;;;6.00;1.63;;;7.60;80.20;;;;;;5031733;28;20033;-70
2023/11/28 10:42:44;;;;;;;1.25;0.73;;;7.60;80.70;;;;;;5032308;28;20072;-75
2023/11/28 10:45:13;;;;;;;3.95;2.05;;;7.70;80.70;;;;;;5030957;28;20037;-74
2023/11/28 10:47:42;;;;;;;4.85;3.22;;;7.70;80.80;;;;;;5031061;28;20076;-74
2023/11/28 10:50:10;;;;;;;1.55;1.05;;;7.80;80.50;;;;;;5030318;28;20113;-71
2023/11/28 10:52:39;;;;;;;2.55;2.00;;;7.90;80.60;;;;;;5031163;28;20376;-70
2023/11/28 10:55:26;;;;;;;2.20;1.23;;;7.90;80.30;;;;;;5032083;28;20083;-74
2023/11/28 10:58:02;;;;;;;3.97;2.45;;;8.00;80.40;;;;;;5031068;28;20118;-74
2023/11/28 11:00:28;;;;;;;3.33;1.40;;;8.00;80.30;;;;;;5030228;28;20506;-70
2023/11/28 11:03:16;;;;;;;1.52;0.73;;;8.00;79.80;;;;;;5030924;28;20081;-71
2023/11/28 11:05:43;;;;;;;2.80;1.95;;;8.00;80.30;;;;;;5064120;28;20033;-71
2023/11/28 11:08:11;;;;;;;1.80;0.93;;;8.00;79.80;;;;;;5047392;28;20030;-71
2023/11/28 11:10:39;;;;;;;1.65;1.05;;;7.90;80.00;;;;;;5030100;28;20030;-74
2023/11/28 11:13:36;;;;;;;5.60;1.42;;;7.90;80.10;;;;;;5063796;28;20557;-71
2023/11/28 11:16:44;;;;;;;2.20;2.00;;;7.90;80.60;;;;;;5030826;28;20026;-74
2023/11/28 11:19:11;;;;;;;2.35;1.33;;;7.80;80.50;;;;;;5030851;28;20034;-74
2023/11/28 11:22:15;;;;;;;4.45;2.97;;;7.90;80.50;;;;;;5029837;28;20053;-74
2023/11/28 11:24:43;;;;;;;1.33;1.00;;;7.90;80.90;;;;;;5030561;28;20038;-74
2023/11/28 11:27:09;;;;;;;2.95;1.17;;;8.00;80.70;;;;;;5032150;28;20064;-74
2023/11/28 11:29:41;;;;;;;1.95;1.40;;;8.10;80.70;;;;;;5030565;28;20064;-71
2023/11/28 11:32:26;;;;;;;2.33;1.63;;;8.30;80.60;;;;;;5029963;28;20046;-70
2023/11/28 11:34:54;;;;;;;2.28;1.50;;;8.30;80.40;;;;;;5047252;28;20030;-71
2023/11/28 11:37:30;;;;;;;3.83;3.50;;;8.50;79.50;;;;;;5064181;28;20132;-70
2023/11/28 11:39:59;;;;;;;2.05;0.80;;;8.80;78.30;;;;;;5063656;28;20033;-71
2023/11/28 11:42:26;;;;;;;2.55;1.75;;;9.30;77.10;;;;;;5030884;28;20128;-70
2023/11/28 11:45:11;;;;;;;2.97;1.35;;;9.70;75.00;;;;;;5067270;28;20051;-74
2023/11/28 11:47:37;;;;;;;4.05;2.50;;;11.20;71.00;;;;;;5034337;28;20084;-70
2023/11/28 11:50:06;;;;;;;2.53;1.75;;;11.30;68.50;;;;;;5050544;28;20029;-71
2023/11/28 11:52:33;;;;;;;5.78;2.95;;;11.10;69.20;;;;;;5050195;28;20049;-70
2023/11/28 11:55:19;;;;;;;1.98;1.00;;;11.10;69.00;;;;;;5033810;28;20109;-71
2023/11/28 11:57:46;;;;;;;2.50;1.50;;;11.20;69.40;;;;;;5034256;28;20037;-74
2023/11/28 12:00:14;;;;;;;1.73;0.93;;;11.10;69.20;;;;;;5033227;28;20128;-74
2023/11/28 12:02:45;;;;;;;2.10;1.02;;;11.00;69.10;;;;;;5034052;28;20041;-74
2023/11/28 12:05:11;;;;;;;3.63;1.90;;;11.10;69.50;;;;;;5066856;28;20025;-70
2023/11/28 12:07:55;;;;;;;;;;;11.20;69.30;;;;;;5036019;28;20033;-74
2023/11/28 12:10:22;;;;;;;3.13;2.70;;;11.20;69.90;;;;;;5066270;28;19913;-72
2023/11/28 12:12:48;;;;;;;0.85;0.77;;;11.30;69.20;;;;;;5033487;28;20068;-70
2023/11/28 12:15:17;;;;;;;2.70;1.52;;;11.50;68.80;;;;;;5033695;28;20033;-74
2023/11/28 12:17:43;;;;;;;1.23;0.75;;;11.70;68.20;;;;;;5066906;28;20077;-70
2023/11/28 12:20:10;;;;;;;1.58;1.27;;;12.00;67.40;;;;;;5033967;28;20032;-70
2023/11/28 12:22:36;;;;;;;2.15;1.55;;;12.10;66.40;;;;;;5034441;28;20494;-71
2023/11/28 12:25:03;;;;;;;4.00;2.00;;;12.40;65.50;;;;;;5033306;28;20037;-74
2023/11/28 12:27:29;;;;;;;;;;;13.00;64.60;;;;;;5034015;28;20049;-74
2023/11/28 12:29:55;;;;;;;0.60;0.60;;;13.70;62.80;;;;;;5049974;28;19916;-73
2023/11/28 12:32:22;;;;;;;2.88;1.05;;;13.80;60.10;;;;;;5029174;28;20125;-70
2023/11/28 12:34:50;;;;;;;1.88;0.75;;;14.10;59.50;;;;;;5014568;28;20026;-70
2023/11/28 12:37:21;;;;;;;2.28;1.48;;;14.00;58.50;;;;;;5030127;28;20126;-71
2023/11/28 12:39:47;;;;;;;3.38;1.10;;;13.70;58.00;;;;;;5014506;28;20398;-70
2023/11/28 12:42:14;;;;;;;3.78;0.98;;;13.80;58.00;;;;;;5063436;28;20546;-74
2023/11/28 12:44:41;;;;;;;3.38;1.38;;;13.90;58.50;;;;;;5032754;28;20521;-71
2023/11/28 12:47:07;;;;;;;2.65;1.65;;;13.90;58.40;;;;;;5034479;28;20037;-71
2023/11/28 12:49:36;;;;;;;1.52;0.70;;;14.40;57.40;;;;;;5049505;28;20056;-71
2023/11/28 12:52:02;;;;;;;2.42;1.77;;;14.90;56.40;;;;;;5048860;28;20068;-73
2023/11/28 12:54:28;;;;;;;3.95;1.98;;;15.00;55.80;;;;;;5032548;28;20033;-71
2023/11/28 12:56:57;;;;;;;6.60;2.20;;;14.80;55.80;;;;;;5034225;28;20364;-74
2023/11/28 12:59:26;;;;;;;1.73;1.13;;;14.30;56.30;;;;;;5065971;28;20037;-70
2023/11/28 13:01:52;;;;;;;0.63;0.63;;;13.80;57.10;;;;;;5032286;28;20116;-72
2023/11/28 13:04:19;;;;;;;3.38;1.08;;;13.40;58.30;;;;;;5032721;28;20030;-72